sensor_id;sensor_type;location;lat;lon;timestamp;pressure;altitude;pressure_sealevel;temperature;humidity
72950;BME280;64868;45.710;9.590;2022-12-29T00:01:16;99566.28;;;7.63;82.46
72950;BME280;64868;45.710;9.590;2022-12-29T00:03:41;99578.59;;;7.70;83.20
72950;BME280;64868;45.710;9.590;2022-12-29T00:06:07;99585.66;;;7.72;81.45
72950;BME280;64868;45.710;9.590;2022-12-29T00:08:32;99579.28;;;7.73;81.97
72950;BME280;64868;45.710;9.590;2022-12-29T00:11:17;99577.72;;;7.69;82.79
72950;BME280;64868;45.710;9.590;2022-12-29T00:13:47;99561.81;;;7.62;82.71
72950;BME280;64868;45.710;9.590;2022-12-29T00:16:33;99558.69;;;7.52;83.49
72950;BME280;64868;45.710;9.590;2022-12-29T00:18:59;99552.78;;;7.61;81.59
72950;BME280;64868;45.710;9.590;2022-12-29T00:21:25;99555.09;;;7.69;81.59
72950;BME280;64868;45.710;9.590;2022-12-29T00:24:20;99547.91;;;7.68;81.51
72950;BME280;64868;45.710;9.590;2022-12-29T00:29:48;99542.78;;;7.79;81.68
72950;BME280;64868;45.710;9.590;2022-12-29T00:32:32;99527.72;;;7.73;82.28
72950;BME280;64868;45.710;9.590;2022-12-29T00:35:27;99530.50;;;7.72;81.80
72950;BME280;64868;45.710;9.590;2022-12-29T00:37:54;99532.50;;;7.68;82.65
72950;BME280;64868;45.710;9.590;2022-12-29T00:40:40;99529.25;;;7.62;81.47
72950;BME280;64868;45.710;9.590;2022-12-29T00:43:23;99532.13;;;7.59;83.16
72950;BME280;64868;45.710;9.590;2022-12-29T00:46:07;99529.81;;;7.51;82.96
72950;BME280;64868;45.710;9.590;2022-12-29T00:48:33;99522.81;;;7.47;82.69
72950;BME280;64868;45.710;9.590;2022-12-29T00:51:16;99521.34;;;7.57;83.41
72950;BME280;64868;45.710;9.590;2022-12-29T00:53:42;99520.97;;;7.47;82.60
72950;BME280;64868;45.710;9.590;2022-12-29T00:56:07;99528.22;;;7.47;83.19
72950;BME280;64868;45.710;9.590;2022-12-29T00:58:33;99524.13;;;7.38;82.55
72950;BME280;64868;45.710;9.590;2022-12-29T01:01:07;99525.81;;;7.41;82.45
72950;BME280;64868;45.710;9.590;2022-12-29T01:03:34;99519.03;;;7.49;83.12
72950;BME280;64868;45.710;9.590;2022-12-29T01:06:01;99505.56;;;7.48;82.57
72950;BME280;64868;45.710;9.590;2022-12-29T01:08:28;99496.78;;;7.43;81.81
72950;BME280;64868;45.710;9.590;2022-12-29T01:11:07;99498.53;;;7.44;82.11
72950;BME280;64868;45.710;9.590;2022-12-29T01:13:34;99494.41;;;7.37;82.85
72950;BME280;64868;45.710;9.590;2022-12-29T01:15:59;99492.72;;;7.34;82.08
72950;BME280;64868;45.710;9.590;2022-12-29T01:18:25;99499.19;;;7.31;83.44
72950;BME280;64868;45.710;9.590;2022-12-29T01:20:58;99496.69;;;7.27;82.72
72950;BME280;64868;45.710;9.590;2022-12-29T01:23:24;99496.53;;;7.30;84.23
72950;BME280;64868;45.710;9.590;2022-12-29T01:25:49;99498.38;;;7.29;82.19
72950;BME280;64868;45.710;9.590;2022-12-29T01:28:14;99492.94;;;7.29;82.69
72950;BME280;64868;45.710;9.590;2022-12-29T01:30:40;99493.03;;;7.28;82.58
72950;BME280;64868;45.710;9.590;2022-12-29T01:33:05;99489.53;;;7.26;83.07
72950;BME280;64868;45.710;9.590;2022-12-29T01:35:31;99483.47;;;7.21;83.68
72950;BME280;64868;45.710;9.590;2022-12-29T01:37:57;99477.81;;;7.25;82.68
72950;BME280;64868;45.710;9.590;2022-12-29T01:40:23;99486.56;;;7.30;83.20
72950;BME280;64868;45.710;9.590;2022-12-29T01:42:48;99494.63;;;7.32;82.33
72950;BME280;64868;45.710;9.590;2022-12-29T01:45:16;99504.69;;;7.30;83.27
72950;BME280;64868;45.710;9.590;2022-12-29T01:47:53;99501.00;;;7.31;82.28
72950;BME280;64868;45.710;9.590;2022-12-29T01:50:29;99505.16;;;7.21;83.46
72950;BME280;64868;45.710;9.590;2022-12-29T01:52:56;99516.41;;;7.30;83.20
72950;BME280;64868;45.710;9.590;2022-12-29T01:55:26;99512.50;;;7.36;83.86
72950;BME280;64868;45.710;9.590;2022-12-29T01:57:53;99514.19;;;7.39;82.03
72950;BME280;64868;45.710;9.590;2022-12-29T02:00:20;99504.44;;;7.35;82.25
72950;BME280;64868;45.710;9.590;2022-12-29T02:02:53;99508.66;;;7.40;81.79
72950;BME280;64868;45.710;9.590;2022-12-29T02:05:41;99505.88;;;7.42;83.09
72950;BME280;64868;45.710;9.590;2022-12-29T02:08:08;99508.78;;;7.39;83.27
72950;BME280;64868;45.710;9.590;2022-12-29T02:10:35;99505.34;;;7.35;83.39
72950;BME280;64868;45.710;9.590;2022-12-29T02:13:01;99491.38;;;7.43;82.53
72950;BME280;64868;45.710;9.590;2022-12-29T02:15:35;99499.00;;;7.52;82.48
72950;BME280;64868;45.710;9.590;2022-12-29T02:24:09;99500.50;;;7.57;81.84
72950;BME280;64868;45.710;9.590;2022-12-29T02:26:51;99499.81;;;7.54;81.57
72950;BME280;64868;45.710;9.590;2022-12-29T02:46:22;99487.44;;;7.31;82.79
72950;BME280;64868;45.710;9.590;2022-12-29T02:51:50;99494.56;;;7.16;83.85
72950;BME280;64868;45.710;9.590;2022-12-29T02:54:20;99477.09;;;7.22;84.05
72950;BME280;64868;45.710;9.590;2022-12-29T02:59:49;99486.25;;;7.37;83.78
72950;BME280;64868;45.710;9.590;2022-12-29T03:10:35;99477.00;;;7.23;80.12
72950;BME280;64868;45.710;9.590;2022-12-29T03:16:03;99471.50;;;7.25;81.50
72950;BME280;64868;45.710;9.590;2022-12-29T03:23:41;99481.69;;;7.37;80.56
72950;BME280;64868;45.710;9.590;2022-12-29T03:26:11;99470.13;;;7.34;80.60
72950;BME280;64868;45.710;9.590;2022-12-29T03:28:44;99472.44;;;7.41;81.23
72950;BME280;64868;45.710;9.590;2022-12-29T03:31:12;99464.56;;;7.37;80.17
72950;BME280;64868;45.710;9.590;2022-12-29T03:33:40;99470.69;;;7.40;81.92
72950;BME280;64868;45.710;9.590;2022-12-29T03:36:09;99475.56;;;7.34;81.66
72950;BME280;64868;45.710;9.590;2022-12-29T03:38:44;99473.88;;;7.31;80.51
72950;BME280;64868;45.710;9.590;2022-12-29T03:41:16;99472.78;;;7.35;81.55
72950;BME280;64868;45.710;9.590;2022-12-29T03:43:42;99457.78;;;7.28;80.82
72950;BME280;64868;45.710;9.590;2022-12-29T03:46:08;99470.28;;;7.30;80.88
72950;BME280;64868;45.710;9.590;2022-12-29T03:48:33;99472.38;;;7.43;80.39
72950;BME280;64868;45.710;9.590;2022-12-29T03:50:59;99473.31;;;7.42;81.85
72950;BME280;64868;45.710;9.590;2022-12-29T03:53:24;99479.22;;;7.50;79.80
72950;BME280;64868;45.710;9.590;2022-12-29T03:55:49;99460.09;;;7.36;81.32
72950;BME280;64868;45.710;9.590;2022-12-29T03:58:15;99480.22;;;7.31;80.78
72950;BME280;64868;45.710;9.590;2022-12-29T04:00:40;99465.22;;;7.24;81.12
72950;BME280;64868;45.710;9.590;2022-12-29T04:03:06;99472.69;;;7.19;80.29
72950;BME280;64868;45.710;9.590;2022-12-29T04:05:31;99490.88;;;7.17;81.40
72950;BME280;64868;45.710;9.590;2022-12-29T04:07:57;99487.44;;;7.14;82.70
72950;BME280;64868;45.710;9.590;2022-12-29T04:10:22;99487.38;;;7.15;82.24
72950;BME280;64868;45.710;9.590;2022-12-29T04:12:47;99471.97;;;7.16;81.51
72950;BME280;64868;45.710;9.590;2022-12-29T04:15:13;99466.63;;;7.14;82.35
72950;BME280;64868;45.710;9.590;2022-12-29T04:17:38;99471.19;;;7.14;82.30
72950;BME280;64868;45.710;9.590;2022-12-29T04:20:04;99472.94;;;7.15;82.21
72950;BME280;64868;45.710;9.590;2022-12-29T04:22:49;99465.81;;;7.12;80.20
72950;BME280;64868;45.710;9.590;2022-12-29T04:25:15;99475.72;;;7.13;81.38
72950;BME280;64868;45.710;9.590;2022-12-29T04:27:40;99464.22;;;7.08;82.23
72950;BME280;64868;45.710;9.590;2022-12-29T04:30:06;99467.59;;;7.13;80.91
72950;BME280;64868;45.710;9.590;2022-12-29T04:32:31;99461.28;;;7.30;80.25
72950;BME280;64868;45.710;9.590;2022-12-29T04:34:57;99472.16;;;7.13;81.32
72950;BME280;64868;45.710;9.590;2022-12-29T04:37:22;99468.00;;;7.05;79.78
72950;BME280;64868;45.710;9.590;2022-12-29T04:39:48;99464.31;;;7.06;79.78
72950;BME280;64868;45.710;9.590;2022-12-29T04:42:13;99462.25;;;7.12;79.94
72950;BME280;64868;45.710;9.590;2022-12-29T04:44:38;99464.06;;;7.11;80.49
72950;BME280;64868;45.710;9.590;2022-12-29T04:47:04;99453.88;;;6.99;81.15
72950;BME280;64868;45.710;9.590;2022-12-29T04:49:29;99462.00;;;6.99;79.88
72950;BME280;64868;45.710;9.590;2022-12-29T04:51:54;99458.09;;;7.04;80.00
72950;BME280;64868;45.710;9.590;2022-12-29T04:54:20;99452.84;;;7.01;81.96
72950;BME280;64868;45.710;9.590;2022-12-29T04:56:45;99448.44;;;6.99;81.25
72950;BME280;64868;45.710;9.590;2022-12-29T04:59:10;99457.56;;;6.98;80.40
72950;BME280;64868;45.710;9.590;2022-12-29T05:01:36;99446.84;;;6.95;80.42
72950;BME280;64868;45.710;9.590;2022-12-29T05:04:01;99457.47;;;6.99;80.13
72950;BME280;64868;45.710;9.590;2022-12-29T05:06:27;99462.72;;;7.02;80.78
72950;BME280;64868;45.710;9.590;2022-12-29T05:08:52;99462.09;;;6.97;80.94
72950;BME280;64868;45.710;9.590;2022-12-29T05:11:17;99481.22;;;6.94;79.72
72950;BME280;64868;45.710;9.590;2022-12-29T05:13:45;99472.66;;;6.85;81.66
72950;BME280;64868;45.710;9.590;2022-12-29T05:16:12;99473.25;;;6.91;82.04
72950;BME280;64868;45.710;9.590;2022-12-29T05:18:37;99453.41;;;6.91;80.96
72950;BME280;64868;45.710;9.590;2022-12-29T05:21:03;99465.75;;;6.96;80.75
72950;BME280;64868;45.710;9.590;2022-12-29T05:23:28;99450.84;;;6.88;80.07
72950;BME280;64868;45.710;9.590;2022-12-29T05:25:53;99475.41;;;7.02;81.42
72950;BME280;64868;45.710;9.590;2022-12-29T05:28:19;99478.19;;;7.00;81.62
72950;BME280;64868;45.710;9.590;2022-12-29T05:30:48;99470.22;;;6.97;81.56
72950;BME280;64868;45.710;9.590;2022-12-29T05:33:14;99474.25;;;6.89;81.49
72950;BME280;64868;45.710;9.590;2022-12-29T05:35:39;99467.00;;;6.89;81.85
72950;BME280;64868;45.710;9.590;2022-12-29T05:38:04;99470.72;;;7.05;82.05
72950;BME280;64868;45.710;9.590;2022-12-29T05:40:30;99473.09;;;7.12;81.52
72950;BME280;64868;45.710;9.590;2022-12-29T05:42:55;99472.78;;;7.18;80.74
72950;BME280;64868;45.710;9.590;2022-12-29T05:45:21;99467.75;;;7.10;81.23
72950;BME280;64868;45.710;9.590;2022-12-29T05:47:46;99472.88;;;7.16;81.41
72950;BME280;64868;45.710;9.590;2022-12-29T05:50:11;99469.19;;;7.17;81.07
72950;BME280;64868;45.710;9.590;2022-12-29T05:52:37;99481.72;;;7.20;81.84
72950;BME280;64868;45.710;9.590;2022-12-29T05:55:02;99482.50;;;7.22;81.62
72950;BME280;64868;45.710;9.590;2022-12-29T05:57:28;99482.50;;;7.22;80.89
72950;BME280;64868;45.710;9.590;2022-12-29T05:59:53;99482.41;;;7.23;81.80
72950;BME280;64868;45.710;9.590;2022-12-29T06:02:18;99479.31;;;7.14;81.06
72950;BME280;64868;45.710;9.590;2022-12-29T06:04:44;99476.50;;;7.15;82.19
72950;BME280;64868;45.710;9.590;2022-12-29T06:07:09;99481.41;;;7.09;81.30
72950;BME280;64868;45.710;9.590;2022-12-29T06:09:35;99472.53;;;7.05;82.61
72950;BME280;64868;45.710;9.590;2022-12-29T06:12:00;99477.78;;;7.08;81.18
72950;BME280;64868;45.710;9.590;2022-12-29T06:14:25;99490.94;;;7.16;80.91
72950;BME280;64868;45.710;9.590;2022-12-29T06:16:51;99492.72;;;7.17;81.41
72950;BME280;64868;45.710;9.590;2022-12-29T06:19:16;99481.63;;;7.21;82.24
72950;BME280;64868;45.710;9.590;2022-12-29T06:21:41;99480.19;;;7.14;80.82
72950;BME280;64868;45.710;9.590;2022-12-29T06:24:07;99489.13;;;7.16;81.32
72950;BME280;64868;45.710;9.590;2022-12-29T06:26:32;99482.59;;;7.20;81.25
72950;BME280;64868;45.710;9.590;2022-12-29T06:28:57;99477.88;;;7.06;81.34
72950;BME280;64868;45.710;9.590;2022-12-29T06:31:23;99491.59;;;7.03;82.00
72950;BME280;64868;45.710;9.590;2022-12-29T06:33:48;99488.97;;;7.02;80.49
72950;BME280;64868;45.710;9.590;2022-12-29T06:36:13;99486.31;;;7.00;81.74
72950;BME280;64868;45.710;9.590;2022-12-29T06:38:39;99482.72;;;7.00;82.54
72950;BME280;64868;45.710;9.590;2022-12-29T06:41:04;99477.25;;;7.01;82.95
72950;BME280;64868;45.710;9.590;2022-12-29T06:43:30;99482.44;;;7.06;80.91
72950;BME280;64868;45.710;9.590;2022-12-29T06:45:55;99487.84;;;7.06;80.74
72950;BME280;64868;45.710;9.590;2022-12-29T06:48:21;99480.50;;;7.08;81.88
72950;BME280;64868;45.710;9.590;2022-12-29T06:50:46;99471.50;;;7.07;81.54
72950;BME280;64868;45.710;9.590;2022-12-29T06:53:12;99480.34;;;7.11;81.58
72950;BME280;64868;45.710;9.590;2022-12-29T06:55:37;99474.28;;;7.06;81.32
72950;BME280;64868;45.710;9.590;2022-12-29T06:58:02;99478.19;;;7.18;81.02
72950;BME280;64868;45.710;9.590;2022-12-29T07:00:28;99470.78;;;7.21;80.21
72950;BME280;64868;45.710;9.590;2022-12-29T07:02:55;99484.09;;;7.26;80.62
72950;BME280;64868;45.710;9.590;2022-12-29T07:05:21;99463.53;;;7.22;80.30
72950;BME280;64868;45.710;9.590;2022-12-29T07:07:46;99470.47;;;7.27;81.10
72950;BME280;64868;45.710;9.590;2022-12-29T07:10:11;99469.34;;;7.31;80.36
72950;BME280;64868;45.710;9.590;2022-12-29T07:12:37;99480.97;;;7.34;81.57
72950;BME280;64868;45.710;9.590;2022-12-29T07:15:02;99480.13;;;7.33;81.01
72950;BME280;64868;45.710;9.590;2022-12-29T07:17:28;99485.63;;;7.31;79.75
72950;BME280;64868;45.710;9.590;2022-12-29T07:19:53;99486.91;;;7.24;80.34
72950;BME280;64868;45.710;9.590;2022-12-29T07:22:18;99485.47;;;7.17;81.04
72950;BME280;64868;45.710;9.590;2022-12-29T07:24:44;99490.16;;;7.14;82.16
72950;BME280;64868;45.710;9.590;2022-12-29T07:27:09;99498.59;;;7.07;81.80
72950;BME280;64868;45.710;9.590;2022-12-29T07:29:36;99496.59;;;7.11;80.10
72950;BME280;64868;45.710;9.590;2022-12-29T07:32:02;99492.63;;;7.01;80.79
72950;BME280;64868;45.710;9.590;2022-12-29T07:34:27;99507.41;;;7.13;81.75
72950;BME280;64868;45.710;9.590;2022-12-29T07:36:53;99501.25;;;7.26;80.80
72950;BME280;64868;45.710;9.590;2022-12-29T07:39:18;99512.75;;;7.31;80.41
72950;BME280;64868;45.710;9.590;2022-12-29T07:41:44;99511.53;;;7.37;81.91
72950;BME280;64868;45.710;9.590;2022-12-29T07:44:09;99515.94;;;7.40;80.43
72950;BME280;64868;45.710;9.590;2022-12-29T07:46:35;99514.88;;;7.42;80.48
72950;BME280;64868;45.710;9.590;2022-12-29T07:49:00;99516.91;;;7.39;80.95
72950;BME280;64868;45.710;9.590;2022-12-29T07:51:25;99516.41;;;7.48;79.59
72950;BME280;64868;45.710;9.590;2022-12-29T07:53:51;99507.16;;;7.52;80.17
72950;BME280;64868;45.710;9.590;2022-12-29T07:56:16;99515.91;;;7.57;79.87
72950;BME280;64868;45.710;9.590;2022-12-29T07:58:42;99526.75;;;7.57;80.89
72950;BME280;64868;45.710;9.590;2022-12-29T08:01:07;99518.97;;;7.51;80.19
72950;BME280;64868;45.710;9.590;2022-12-29T08:03:33;99520.88;;;7.49;79.32
72950;BME280;64868;45.710;9.590;2022-12-29T08:05:58;99519.13;;;7.48;80.23
72950;BME280;64868;45.710;9.590;2022-12-29T08:08:23;99510.88;;;7.49;80.51
72950;BME280;64868;45.710;9.590;2022-12-29T08:10:49;99524.22;;;7.71;78.70
72950;BME280;64868;45.710;9.590;2022-12-29T08:13:14;99519.19;;;7.81;78.09
72950;BME280;64868;45.710;9.590;2022-12-29T08:15:39;99510.78;;;7.86;77.85
72950;BME280;64868;45.710;9.590;2022-12-29T08:18:05;99526.50;;;7.96;78.51
72950;BME280;64868;45.710;9.590;2022-12-29T08:20:31;99528.63;;;8.07;77.05
72950;BME280;64868;45.710;9.590;2022-12-29T08:22:57;99516.69;;;8.10;77.20
72950;BME280;64868;45.710;9.590;2022-12-29T08:25:22;99531.63;;;8.18;77.51
72950;BME280;64868;45.710;9.590;2022-12-29T08:27:47;99522.34;;;8.22;76.53
72950;BME280;64868;45.710;9.590;2022-12-29T08:30:13;99515.34;;;8.18;77.63
72950;BME280;64868;45.710;9.590;2022-12-29T08:32:38;99522.59;;;8.18;78.03
72950;BME280;64868;45.710;9.590;2022-12-29T08:35:04;99520.56;;;8.21;77.13
72950;BME280;64868;45.710;9.590;2022-12-29T08:37:30;99503.94;;;8.12;77.71
72950;BME280;64868;45.710;9.590;2022-12-29T08:39:57;99509.09;;;8.16;77.72
72950;BME280;64868;45.710;9.590;2022-12-29T08:42:23;99511.91;;;8.15;76.99
72950;BME280;64868;45.710;9.590;2022-12-29T08:44:50;99517.69;;;8.24;77.40
72950;BME280;64868;45.710;9.590;2022-12-29T08:47:15;99514.97;;;8.24;76.93
72950;BME280;64868;45.710;9.590;2022-12-29T08:49:40;99525.84;;;8.24;76.34
72950;BME280;64868;45.710;9.590;2022-12-29T08:52:07;99522.50;;;8.19;76.72
72950;BME280;64868;45.710;9.590;2022-12-29T08:54:33;99528.84;;;8.36;76.61
72950;BME280;64868;45.710;9.590;2022-12-29T08:56:58;99507.94;;;8.38;75.42
72950;BME280;64868;45.710;9.590;2022-12-29T08:59:24;99525.84;;;8.73;75.05
72950;BME280;64868;45.710;9.590;2022-12-29T09:01:49;99517.59;;;8.91;75.02
72950;BME280;64868;45.710;9.590;2022-12-29T09:04:14;99507.72;;;9.04;74.73
72950;BME280;64868;45.710;9.590;2022-12-29T09:06:40;99514.63;;;9.25;73.17
72950;BME280;64868;45.710;9.590;2022-12-29T09:09:05;99521.19;;;9.37;72.41
72950;BME280;64868;45.710;9.590;2022-12-29T09:11:31;99517.13;;;9.44;70.72
72950;BME280;64868;45.710;9.590;2022-12-29T09:13:56;99522.34;;;9.78;71.01
72950;BME280;64868;45.710;9.590;2022-12-29T09:16:23;99513.31;;;10.06;70.42
72950;BME280;64868;45.710;9.590;2022-12-29T09:18:48;99503.88;;;10.11;69.00
72950;BME280;64868;45.710;9.590;2022-12-29T09:21:14;99517.72;;;10.08;68.73
72950;BME280;64868;45.710;9.590;2022-12-29T09:23:40;99518.75;;;9.91;69.42
72950;BME280;64868;45.710;9.590;2022-12-29T09:26:06;99518.06;;;9.88;69.75
72950;BME280;64868;45.710;9.590;2022-12-29T09:28:33;99523.91;;;9.82;69.00
72950;BME280;64868;45.710;9.590;2022-12-29T09:30:59;99525.28;;;9.89;69.02
72950;BME280;64868;45.710;9.590;2022-12-29T09:33:25;99530.72;;;10.03;68.09
72950;BME280;64868;45.710;9.590;2022-12-29T09:35:53;99524.16;;;10.36;67.52
72950;BME280;64868;45.710;9.590;2022-12-29T09:38:19;99522.59;;;10.46;66.66
72950;BME280;64868;45.710;9.590;2022-12-29T09:40:49;99518.34;;;10.28;67.23
72950;BME280;64868;45.710;9.590;2022-12-29T09:46:25;99516.44;;;10.14;67.98
72950;BME280;64868;45.710;9.590;2022-12-29T09:51:44;99514.66;;;9.84;67.89
72950;BME280;64868;45.710;9.590;2022-12-29T09:54:23;99535.75;;;9.81;70.18
72950;BME280;64868;45.710;9.590;2022-12-29T09:56:49;99529.75;;;9.45;73.28
72950;BME280;64868;45.710;9.590;2022-12-29T09:59:20;99528.63;;;9.64;72.77
72950;BME280;64868;45.710;9.590;2022-12-29T10:01:57;99538.25;;;9.55;73.59
72950;BME280;64868;45.710;9.590;2022-12-29T10:04:28;99533.63;;;9.71;73.10
72950;BME280;64868;45.710;9.590;2022-12-29T10:07:16;99522.16;;;9.95;72.12
72950;BME280;64868;45.710;9.590;2022-12-29T10:12:57;99514.97;;;9.94;72.57
72950;BME280;64868;45.710;9.590;2022-12-29T10:23:43;99504.28;;;10.05;72.51
72950;BME280;64868;45.710;9.590;2022-12-29T10:26:17;99492.03;;;9.98;72.28
72950;BME280;64868;45.710;9.590;2022-12-29T10:28:55;99488.44;;;10.26;71.29
72950;BME280;64868;45.710;9.590;2022-12-29T10:31:25;99484.63;;;10.43;70.51
72950;BME280;64868;45.710;9.590;2022-12-29T10:33:57;99487.53;;;10.54;70.14
72950;BME280;64868;45.710;9.590;2022-12-29T10:36:30;99481.78;;;10.44;70.77
72950;BME280;64868;45.710;9.590;2022-12-29T10:39:05;99477.84;;;10.36;69.97
72950;BME280;64868;45.710;9.590;2022-12-29T10:44:29;99479.63;;;9.64;72.79
72950;BME280;64868;45.710;9.590;2022-12-29T10:46:59;99478.22;;;9.42;73.84
72950;BME280;64868;45.710;9.590;2022-12-29T10:49:29;99480.75;;;9.45;74.19
72950;BME280;64868;45.710;9.590;2022-12-29T10:51:58;99462.81;;;9.57;74.41
72950;BME280;64868;45.710;9.590;2022-12-29T10:57:07;99456.13;;;9.63;73.42
72950;BME280;64868;45.710;9.590;2022-12-29T10:59:36;99464.75;;;9.55;74.10
72950;BME280;64868;45.710;9.590;2022-12-29T11:07:21;99459.22;;;10.14;72.09
72950;BME280;64868;45.710;9.590;2022-12-29T11:09:47;99453.31;;;9.93;71.09
72950;BME280;64868;45.710;9.590;2022-12-29T11:12:28;99461.88;;;9.87;72.72
72950;BME280;64868;45.710;9.590;2022-12-29T11:15:13;99463.22;;;9.80;73.03
72950;BME280;64868;45.710;9.590;2022-12-29T11:17:45;99467.50;;;9.84;72.83
72950;BME280;64868;45.710;9.590;2022-12-29T11:20:31;99456.88;;;9.65;73.51
72950;BME280;64868;45.710;9.590;2022-12-29T11:22:57;99454.09;;;9.66;74.79
72950;BME280;64868;45.710;9.590;2022-12-29T11:25:23;99454.38;;;9.76;74.18
72950;BME280;64868;45.710;9.590;2022-12-29T11:28:02;99454.75;;;9.84;74.17
72950;BME280;64868;45.710;9.590;2022-12-29T11:30:30;99463.81;;;9.99;72.89
72950;BME280;64868;45.710;9.590;2022-12-29T11:32:57;99459.03;;;9.74;74.58
72950;BME280;64868;45.710;9.590;2022-12-29T11:35:41;99459.50;;;9.52;75.37
72950;BME280;64868;45.710;9.590;2022-12-29T11:38:33;99474.81;;;9.39;76.31
72950;BME280;64868;45.710;9.590;2022-12-29T11:40:59;99466.16;;;9.32;76.88
72950;BME280;64868;45.710;9.590;2022-12-29T11:43:30;99470.25;;;9.39;77.27
72950;BME280;64868;45.710;9.590;2022-12-29T11:45:59;99460.00;;;9.59;75.82
72950;BME280;64868;45.710;9.590;2022-12-29T11:48:28;99452.00;;;9.41;76.95
72950;BME280;64868;45.710;9.590;2022-12-29T11:50:57;99456.28;;;9.15;78.20
72950;BME280;64868;45.710;9.590;2022-12-29T11:53:28;99445.22;;;9.18;78.68
72950;BME280;64868;45.710;9.590;2022-12-29T11:56:04;99441.53;;;9.19;77.75
72950;BME280;64868;45.710;9.590;2022-12-29T11:58:35;99453.06;;;9.09;79.16
72950;BME280;64868;45.710;9.590;2022-12-29T12:01:13;99442.47;;;9.04;79.66
72950;BME280;64868;45.710;9.590;2022-12-29T12:04:01;99464.59;;;8.82;80.49
72950;BME280;64868;45.710;9.590;2022-12-29T12:06:31;99447.25;;;8.85;79.40
72950;BME280;64868;45.710;9.590;2022-12-29T12:09:12;99438.59;;;9.08;79.61
72950;BME280;64868;45.710;9.590;2022-12-29T12:11:40;99435.22;;;9.19;78.73
72950;BME280;64868;45.710;9.590;2022-12-29T12:14:17;99435.28;;;9.03;79.83
72950;BME280;64868;45.710;9.590;2022-12-29T12:17:09;99443.38;;;8.89;79.15
72950;BME280;64868;45.710;9.590;2022-12-29T12:19:47;99427.44;;;8.83;80.06
72950;BME280;64868;45.710;9.590;2022-12-29T12:22:27;99417.16;;;8.88;79.23
72950;BME280;64868;45.710;9.590;2022-12-29T12:25:01;99422.41;;;8.91;79.79
72950;BME280;64868;45.710;9.590;2022-12-29T12:30:23;99428.72;;;9.21;78.68
72950;BME280;64868;45.710;9.590;2022-12-29T12:33:24;99413.03;;;9.41;78.15
72950;BME280;64868;45.710;9.590;2022-12-29T12:36:19;99412.34;;;9.80;76.11
72950;BME280;64868;45.710;9.590;2022-12-29T12:41:17;99412.97;;;9.85;74.62
72950;BME280;64868;45.710;9.590;2022-12-29T12:51:52;99394.06;;;9.25;77.54
72950;BME280;64868;45.710;9.590;2022-12-29T12:57:31;99398.16;;;9.32;77.58
72950;BME280;64868;45.710;9.590;2022-12-29T13:00:17;99400.28;;;9.41;77.38
72950;BME280;64868;45.710;9.590;2022-12-29T13:02:48;99396.13;;;9.64;76.05
72950;BME280;64868;45.710;9.590;2022-12-29T13:05:25;99394.38;;;9.49;77.34
72950;BME280;64868;45.710;9.590;2022-12-29T13:10:46;99366.94;;;9.38;76.87
72950;BME280;64868;45.710;9.590;2022-12-29T13:16:05;99375.44;;;9.03;77.85
72950;BME280;64868;45.710;9.590;2022-12-29T13:19:08;99377.41;;;9.15;77.54
72950;BME280;64868;45.710;9.590;2022-12-29T13:27:11;99364.69;;;9.87;75.41
72950;BME280;64868;45.710;9.590;2022-12-29T13:30:01;99358.97;;;9.78;75.05
72950;BME280;64868;45.710;9.590;2022-12-29T13:32:49;99343.22;;;9.83;74.37
72950;BME280;64868;45.710;9.590;2022-12-29T13:35:36;99354.16;;;9.95;74.78
72950;BME280;64868;45.710;9.590;2022-12-29T13:38:13;99343.41;;;9.80;73.79
72950;BME280;64868;45.710;9.590;2022-12-29T13:40:47;99347.13;;;9.64;74.47
72950;BME280;64868;45.710;9.590;2022-12-29T13:43:15;99345.34;;;9.35;76.29
72950;BME280;64868;45.710;9.590;2022-12-29T13:45:42;99351.31;;;9.41;75.69
72950;BME280;64868;45.710;9.590;2022-12-29T13:48:22;99344.41;;;9.36;76.04
72950;BME280;64868;45.710;9.590;2022-12-29T13:50:53;99350.22;;;9.30;76.47
72950;BME280;64868;45.710;9.590;2022-12-29T13:56:24;99344.41;;;9.21;76.26
72950;BME280;64868;45.710;9.590;2022-12-29T14:01:53;99339.81;;;9.22;77.08
72950;BME280;64868;45.710;9.590;2022-12-29T14:04:25;99351.00;;;9.17;77.47
72950;BME280;64868;45.710;9.590;2022-12-29T14:07:05;99337.97;;;9.22;76.81
72950;BME280;64868;45.710;9.590;2022-12-29T14:09:39;99337.00;;;9.38;75.97
72950;BME280;64868;45.710;9.590;2022-12-29T14:12:28;99340.72;;;9.37;75.01
72950;BME280;64868;45.710;9.590;2022-12-29T14:15:19;99339.44;;;9.42;75.72
72950;BME280;64868;45.710;9.590;2022-12-29T14:20:31;99332.44;;;9.24;76.89
72950;BME280;64868;45.710;9.590;2022-12-29T14:28:40;99320.69;;;9.38;76.43
72950;BME280;64868;45.710;9.590;2022-12-29T14:33:41;99318.13;;;8.92;77.42
72950;BME280;64868;45.710;9.590;2022-12-29T14:36:36;99326.06;;;8.81;78.16
72950;BME280;64868;45.710;9.590;2022-12-29T14:39:03;99321.19;;;8.71;79.46
72950;BME280;64868;45.710;9.590;2022-12-29T14:41:30;99320.28;;;8.71;79.88
72950;BME280;64868;45.710;9.590;2022-12-29T14:44:00;99313.28;;;8.67;79.55
72950;BME280;64868;45.710;9.590;2022-12-29T14:46:45;99323.81;;;8.73;79.90
72950;BME280;64868;45.710;9.590;2022-12-29T14:49:18;99331.84;;;8.60;79.63
72950;BME280;64868;45.710;9.590;2022-12-29T14:51:45;99330.84;;;8.61;80.97
72950;BME280;64868;45.710;9.590;2022-12-29T14:56:59;99329.19;;;8.59;80.52
72950;BME280;64868;45.710;9.590;2022-12-29T14:59:27;99327.34;;;8.59;80.47
72950;BME280;64868;45.710;9.590;2022-12-29T15:01:53;99326.13;;;8.65;80.56
72950;BME280;64868;45.710;9.590;2022-12-29T15:04:25;99339.53;;;8.52;80.09
72950;BME280;64868;45.710;9.590;2022-12-29T15:06:52;99326.34;;;8.46;81.43
72950;BME280;64868;45.710;9.590;2022-12-29T15:09:30;99345.25;;;8.47;81.52
72950;BME280;64868;45.710;9.590;2022-12-29T15:12:23;99344.63;;;8.58;80.59
72950;BME280;64868;45.710;9.590;2022-12-29T15:14:56;99337.53;;;8.56;80.56
72950;BME280;64868;45.710;9.590;2022-12-29T15:17:33;99341.50;;;8.50;80.93
72950;BME280;64868;45.710;9.590;2022-12-29T15:25:35;99346.81;;;8.36;81.54
72950;BME280;64868;45.710;9.590;2022-12-29T15:28:05;99338.63;;;8.37;80.86
72950;BME280;64868;45.710;9.590;2022-12-29T15:30:31;99335.38;;;8.46;81.38
72950;BME280;64868;45.710;9.590;2022-12-29T15:32:57;99335.88;;;8.53;81.66